Tiempo atmosférico en la estación meteorológica de Soria, Soria (1082 m.)



Fecha
DESCASC
Temp. máxima en grados centígrados (hora)
DESCASC
Temp. mínima en grados centígrados (hora)
DESCASC
Temp. media en grados centígrados
DESCASC
Racha de viento máxima en m/sg (hora)
DESCASC
Velocidad máxima media en intervalos de 10 minutos(hora)
DESCASC
Precipitaciones diarias en mm
DESCASC
Precipitaciones de 00:00 a 06:00 en mm
DESCASC
Precipitaciones de 06:00 a 12:00 en mm
DESCASC
Precipitaciones de 12:00 a 18:00 en mm
DESCASC
Precipitaciones de 18:00 a 24:00 en mm
DESCASC
23-06-2019 30.1 (18:20) 12.7 (06:50) 21.4 10.56 (14:10) 5.83 (15:00) 0 0 0 0 0
22-06-2019 28.1 (18:00) 7.3 (07:00) 17.7 8.33 (18:20) 4.17 (18:40) 0 0 0 0 0
21-06-2019 20.9 (16:20) 11.7 (07:00) 16.3 9.44 (20:20) 5.28 (20:20) 0.2 0 0 0.2 0
20-06-2019 24.6 (15:30) 12.6 (00:00) 18.6 8.89 (16:30) 4.72 (18:30) 8.8 0 0 2.6 6.2
19-06-2019 24.8 (17:30) 13.6 (00:00) 19.2 7.78 (14:50) 3.89 (11:50) 0 0 0 0 0
18-06-2019 28 (17:40) 14.6 (00:00) 21.3 14.17 (14:30) 7.22 (16:10) 0 0 0 0 0
17-06-2019 29.3 (17:40) 9.5 (00:00) 19.4 13.61 (16:30) 4.72 (15:50) 0 0 0 0 0
16-06-2019 27.1 (17:00) 6.2 (00:00) 16.7 7.78 (16:40) 4.17 (17:40) 0 0 0 0 0
15-06-2019 22.7 (18:10) 8.3 (00:00) 15.5 8.33 (00:10) 4.72 (00:10) 0 0 0 0 0
14-06-2019 24.5 (17:10) 9.8 (00:00) 17.2 11.11 (15:20) 6.39 (16:20) 0 0 0 0 0
13-06-2019 24.8 (17:50) 6.6 (00:00) 15.7 11.67 (13:40) 5.56 (15:50) 0 0 0 0 0
12-06-2019 19.5 (19:00) 2.6 (00:00) 11 10 (13:40) 5.28 (13:40) 0 0 0 0 0
11-06-2019 16.4 (17:10) 6 (00:00) 11.2 8.89 (19:30) 5 (05:00) 3.8 0.2 1.2 2.4 0
10-06-2019 21.3 (17:40) 6.4 (00:00) 13.8 8.89 (15:00) 4.72 (16:20) 0 0 0 0 0
09-06-2019 25.5 (16:20) 8.6 (00:00) 17.1 10 (21:20) 5.83 (21:30) 0 0 0 0 0
08-06-2019 23.2 (17:00) 2.1 (00:00) 12.7 11.94 (17:40) 4.17 (17:40) 0.2 0 0 0 0.2
07-06-2019 16.7 (17:50) 6 (00:00) 11.4 13.06 (08:10) 6.11 (03:40) 0.6 0.6 0 0 0
06-06-2019 20.5 (18:30) 6.2 (00:00) 13.3 14.44 (15:40) 8.06 (16:50) 0 0 0 0 0
05-06-2019 16.3 (16:30) 7.8 (00:00) 12 9.17 (16:30) 5.28 (16:50) 9.4 3.2 5.4 0.8 0
04-06-2019 26.5 (15:50) 11.2 (00:00) 18.8 11.67 (16:00) 6.67 (17:10) 0 0 0 0 0
03-06-2019 30.5 (17:10) 13.8 (00:00) 22.2 9.17 (15:10) 5.28 (16:30) 0 0 0 0 0
02-06-2019 31.3 (16:50) 10.9 (00:00) 21.1 6.94 (15:30) 3.61 (15:20) 0 0 0 0 0
01-06-2019 30.1 (17:50) 9 (00:00) 19.6 9.44 (18:50) 4.17 (18:50) 0 0 0 0 0
31-05-2019 28.6 (17:30) 9.5 (00:00) 19.1 7.22 (18:00) 3.61 (19:10) 0 0 0 0 0
30-05-2019 25 (16:10) 8.9 (00:00) 16.9 9.17 (15:10) 5.28 (15:20) 0 0 0 0 0
29-05-2019 17.3 (16:00) 6.4 (00:00) 11.8 11.67 (15:10) 6.67 (14:10) 0 0 0 0 0
28-05-2019 16.1 (14:20) 5.7 (00:00) 10.9 12.78 (16:20) 7.22 (16:30) 0 0 0 0 0

Gráficas

Temp. máximas Temp. mínimas Temp. medias Precipitaciones Rachas de viento máximas Velocidades máximas media en intervalos de 10 minutos

Datos horarios

Fecha y hora oficial Temperatura (ºC) Velocidad del viento (km/h) Dirección del viento Racha (km/h) Dirección de racha Precipitación (mm) Presión (hPa) Tendencia (hPa) Humedad (%)
2019-06-26 23:00:00 26.5 13 Sudeste 29 Sudeste 0 897.3 1.6 37
2019-06-26 22:00:00 27.5 8 Este 23 Este 0 896.4 1.1 36
2019-06-26 21:00:00 29.6 9 Este 31 Este 0 896 0.3 33
2019-06-26 20:00:00 31.9 12 Este 34 Este 0 895.7 -0.1 29
2019-06-26 19:00:00 33.6 17 Este 30 Este 0 895.3 -0.6 27
2019-06-26 18:00:00 33.8 13 Sudeste 30 Sudeste 0 895.7 -0.6 27
2019-06-26 17:00:00 34.2 13 Este 36 Sudeste 0 895.8 -1.1 25
2019-06-26 16:00:00 34.8 13 Sur 36 Sudeste 0 895.9 -1.4 21
2019-06-26 15:00:00 33.5 12 Sudeste 28 Sudeste 0 896.3 -1.1 21
2019-06-26 14:00:00 32.2 13 Sudeste 32 Sudeste 0 896.9 -0.5 24
2019-06-26 13:00:00 30.6 11 Sur 27 Sur 0 897.3 -0.4 27
2019-06-26 12:00:00 29.3 11 Sudeste 21 Sur 0 897.4 0.2 29
2019-06-26 11:00:00 27.1 11 Este 20 Este 0 897.4 0.7 36
2019-06-26 10:00:00 25.4 7 Sur 14 Sur 0 897.7 1.1 37
2019-06-26 09:00:00 21.5 2 Norte 7 Norte 0 897.2 0.7 53
2019-06-26 08:00:00 17.2 3 Norte 8 Este 0 896.7 0.2 71
2019-06-26 07:00:00 17 3 Norte 8 Noroeste 0 896.6 0.4 72
2019-06-26 06:00:00 18.3 2 Sudeste 10 Este 0 896.5 0.3 65
2019-06-26 05:00:00 19.2 4 Sudeste 12 Este 0 896.5 0.6 64
2019-06-26 04:00:00 20.1 7 Este 14 Este 0 896.2 0.4 61
2019-06-26 03:00:00 20.9 7 Este 13 Este 0 896.2 0.3 59
2019-06-26 02:00:00 20.6 3 Sudeste 10 Nordeste 0 895.9 0.2 63
2019-06-26 01:00:00 22.3 3 Nordeste 13 Nordeste 0 895.8 0.7 58
2019-06-26 00:00:00 24.2 7 Este 18 Este 0 895.9 0.9 50
2019-06-25 23:00:00 25.1 6 Norte 21 Sur 0 895.7 0.9 48
2019-06-25 22:00:00 26.5 8 Sudeste 23 Sudeste 0 895.1 0.6 45
2019-06-25 21:00:00 28.5 10 Sudeste 23 Sur 0 895 0.1 38
2019-06-25 20:00:00 31.1 8 Sur 24 Sur 0 894.8 -0.3 23
2019-06-25 19:00:00 32.1 13 Sudoeste 26 Sudoeste 0 894.5 -0.8 21
2019-06-25 18:00:00 32.4 12 Sur 35 Sur 0 894.9 -0.6 21
2019-06-25 17:00:00 32.5 16 Sur 30 Sur 0 895.1 -0.9 23
2019-06-25 16:00:00 31.3 20 Sur 36 Sur 0 895.3 -1 24
2019-06-25 15:00:00 30.9 11 Sudeste 30 Sur 0 895.5 -1 30
2019-06-25 14:00:00 28.6 11 Sur 26 Sudoeste 0 896 -0.3 35
2019-06-25 13:00:00 25.7 4 Sudeste 13 Sudeste 0 896.3 -0.2 42
2019-06-25 12:00:00 24.6 6 Sudeste 15 Sudeste 0 896.5 0.3 44
2019-06-25 11:00:00 22 5 Este 9 Este 0 896.3 0.4 51
2019-06-25 10:00:00 18.8 3 Sudeste 7 Nordeste 0 896.5 1.1 59
2019-06-25 09:00:00 16.8 4 Nordeste 7 Este 0 896.2 1.1 65
2019-06-25 08:00:00 15 3 Nordeste 5 Nordeste 0 895.9 1.1 73
2019-06-25 07:00:00 14.6 2 Este 10 Nordeste 0 895.4 0.4 75
2019-06-25 06:00:00 15.2 0 Calma 6 Oeste 0 895.1 0.1 73
2019-06-25 05:00:00 15.6 2 Sudoeste 5 Oeste 0 894.8 -0.2 74
2019-06-25 04:00:00 16.3 3 Norte 8 Noroeste 0 895 0 72
2019-06-25 03:00:00 17.1 2 Norte 10 Oeste 0 895 0.2 67
2019-06-25 02:00:00 17.7 4 Sudoeste 13 Oeste 0 895 0.7 64
2019-06-25 01:00:00 19.4 5 Norte 18 Oeste 0 895 1.1 58
2019-06-25 00:00:00 21.5 11 Oeste 18 Oeste 0 894.8 1.5 51
2019-06-24 23:00:00 23.6 3 Sudeste 10 Este 0 894.3 1.5 35
2019-06-24 22:00:00 24.4 3 Sudeste 12 Este 0 893.9 1.1 33
2019-06-24 21:00:00 26.3 4 Noroeste 16 Sur 0 893.3 0 34
2019-06-24 20:00:00 27.6 8 Sudoeste 18 Sudoeste 0 892.8 -0.6 29
2019-06-24 19:00:00 28.4 6 Sur 20 Sudoeste 0 892.8 -0.7 28
2019-06-24 18:00:00 27.6 10 Sudoeste 25 Sudoeste 0 893.3 -0.3 29
2019-06-24 17:00:00 28.1 14 Sudoeste 25 Sudoeste 0 893.4 -0.2 28
2019-06-24 16:00:00 27.3 10 Sudoeste 24 Sur 0 893.5 -0.4 29
2019-06-24 15:00:00 26.8 12 Sudoeste 23 Sur 0 893.6 -0.5 29
2019-06-24 14:00:00 26.7 13 Sur 26 Sur 0 893.6 -0.5 29
2019-06-24 13:00:00 26.1 13 Sur 22 Sur 0 893.9 0 29
2019-06-24 12:00:00 25 12 Sur 21 Sur 0 894.1 0.2 31
2019-06-24 11:00:00 24 11 Sur 23 Sur 0 894.1 0.2 33
2019-06-24 10:00:00 22.9 11 Sur 22 Sudeste 0 893.9 0.2 33
2019-06-24 09:00:00 21 3 Sudeste 9 Este 0 893.9 0.4 37
2019-06-24 08:00:00 16.6 3 Sudeste 9 Este 0 893.9 0.5 65
2019-06-24 07:00:00 17.6 3 Norte 8 Sur 0 893.7 0.5 58
2019-06-24 06:00:00 18.8 4 Sudoeste 8 Sur 0 893.5 0.1 48
2019-06-24 05:00:00 19.5 4 Nordeste 12 Sur 0 893.4 0.2 49
2019-06-24 04:00:00 21 5 Sur 17 Sur 0 893.2 0 44
2019-06-24 03:00:00 20.7 5 Sudoeste 12 Sur 0 893.4 0.2 48
2019-06-24 02:00:00 20.5 4 Este 9 Nordeste 0 893.2 0.2 47
2019-06-24 01:00:00 21.3 4 Norte 11 Este 0 893.2 0.5 42
2019-06-24 00:00:00 22.2 6 Este 12 Nordeste 0 893.2 0.5 41
2019-06-23 23:00:00 23.9 5 Nordeste 8 Este 0 893 0.5 34
2019-06-23 22:00:00 25.9 3 Oeste 10 Oeste 0 892.7 0.3 29
2019-06-23 21:00:00 27.4 8 Oeste 17 Oeste 0 892.7 0.1 25
2019-06-23 20:00:00 28.6 10 Sudoeste 27 Oeste 0 892.5 -0.3 23
2019-06-23 19:00:00 29.7 13 Sudoeste 23 Sudoeste 0 892.4 -0.7 22
2019-06-23 18:00:00 29.5 16 Sudoeste 30 Oeste 0 892.6 -0.8 23
2019-06-23 17:00:00 29.2 14 Sudoeste 32 Sudoeste 0 892.8 -0.8 24
2019-06-23 16:00:00 29.7 15 Sudoeste 35 Sudoeste 0 893.1 -0.8 25
2019-06-23 15:00:00 28.8 21 Sudoeste 38 Sur 0 893.4 -0.4 27
2019-06-23 14:00:00 28.4 15 Sur 37 Sur 0 893.6 -0.3 30
2019-06-23 13:00:00 26.9 15 Sudoeste 32 Sur 0 893.9 -0.1 31
2019-06-23 12:00:00 25.7 11 Sur 21 Sur 0 893.8 -0.1 38
2019-06-23 11:00:00 23.6 8 Sur 16 Sudoeste 0 893.9 0.2 48
2019-06-23 10:00:00 20.9 10 Sur 16 Sur 0 894 0.6 55
2019-06-23 09:00:00 16.9 3 Este 6 Sudeste 0 893.9 0.9 70
2019-06-23 08:00:00 13.7 0 Calma 4 Norte 0 893.7 0.9 79
2019-06-23 07:00:00 12.7 2 Norte 6 Este 0 893.4 0.4 76
2019-06-23 06:00:00 13.5 0 Calma 5 Norte 0 893 -0.3 72
2019-06-23 05:00:00 16 0 Calma 11 Sur 0 892.8 -0.6 61
2019-06-23 04:00:00 14.8 0 Calma 9 Noroeste 0 893 -0.5 67
2019-06-23 03:00:00 15.8 2 Noroeste 6 Noroeste 0 893.3 -0.3 64
2019-06-23 02:00:00 17.1 3 Noroeste 5 Noroeste 0 893.4 0 60
2019-06-23 01:00:00 18.3 3 Noroeste 7 Sudeste 0 893.5 0.5 52
2019-06-23 00:00:00 19.6 4 Este 8 Este 0 893.6 0.7 47
2019-06-22 23:00:00 21 0 Calma 5 Sudeste 0 893.4 0.6 39
2019-06-22 22:00:00 23.2 3 Sudoeste 12 Sudoeste 0 893 0.2 33
2019-06-22 21:00:00 24.8 7 Sur 18 Sur 0 892.9 -0.1 29
2019-06-22 20:00:00 25.7 10 Sudoeste 24 Sudoeste 0 892.8 -0.4 26
2019-06-22 19:00:00 27.1 14 Sudoeste 30 Sur 0 892.8 -0.7 26
2019-06-22 18:00:00 27.9 13 Sur 27 Sudoeste 0 893 -0.9 27
2019-06-22 17:00:00 26.7 4 Sur 18 Oeste 0 893.2 -1.2 30
2019-06-22 16:00:00 27.2 4 Sudoeste 18 Oeste 0 893.5 -1.7 32
2019-06-22 15:00:00 26.7 10 Oeste 24 Oeste 0 893.9 -1.6 34
2019-06-22 14:00:00 25.4 8 Oeste 23 Oeste 0 894.4 -1.4 36
2019-06-22 13:00:00 23.8 11 Sudoeste 29 Oeste 0 895.2 -0.9 39
2019-06-22 12:00:00 21.7 10 Sudoeste 22 Oeste 0 895.5 -0.8 53
2019-06-22 11:00:00 18.8 5 Sur 12 Sur 0 895.8 -0.4 60
2019-06-22 10:00:00 15.5 3 Este 7 Este 0 896.1 0 67
2019-06-22 09:00:00 12.7 3 Nordeste 6 Noroeste 0 896.3 0.5 78
2019-06-22 08:00:00 8.2 2 Norte 5 Norte 0 896.2 0.2 95
2019-06-22 07:00:00 7.3 0 Calma 4 Sudeste 0 896.1 -0.4 94
2019-06-22 06:00:00 7.7 0 Calma 3 Nordeste 0 895.8 -0.9 90
2019-06-22 05:00:00 8.8 0 Calma 9 Norte 0 896 -1.1 90
2019-06-22 04:00:00 9.8 5 Norte 11 Norte 0 896.5 -0.7 84
2019-06-22 03:00:00 10.6 2 Norte 8 Nordeste 0 896.7 -0.5 85
2019-06-22 02:00:00 11.3 5 Nordeste 9 Nordeste 0 897.1 0.2 84
2019-06-22 01:00:00 11.3 4 Este 10 Este 0 897.2 0.7 83
2019-06-22 00:00:00 12.4 4 Nordeste 18 Nordeste 0 897.2 1.1 77
2019-06-21 23:00:00 13.3 11 Nordeste 24 Nordeste 0 896.9 1.4 72
2019-06-21 22:00:00 14.2 12 Nordeste 32 Nordeste 0 896.5 1.6 69
2019-06-21 21:00:00 15.6 17 Nordeste 34 Nordeste 0 896.1 1.2 64
2019-06-21 20:00:00 17.2 14 Nordeste 30 Nordeste 0 895.5 0.5 60
2019-06-21 19:00:00 19 16 Nordeste 29 Nordeste 0 894.9 -0.1 55
2019-06-21 18:00:00 18.1 10 Nordeste 20 Nordeste 0.2 894.9 -0.5 65
2019-06-21 17:00:00 19.7 11 Nordeste 24 Nordeste 0 895 -0.5 51
2019-06-21 16:00:00 20.2 10 Nordeste 28 Norte 0 895 -0.4 48
2019-06-21 15:00:00 19.5 14 Nordeste 32 Norte 0 895.4 0.1 53
2019-06-21 14:00:00 18.1 12 Norte 25 Nordeste 0 895.5 0.2 60
2019-06-21 13:00:00 18.1 11 Este 22 Este 0 895.4 0.3 59
2019-06-21 12:00:00 18.3 8 Nordeste 17 Este 0 895.3 0.5 60
2019-06-21 11:00:00 17.6 7 Sudeste 14 Este 0 895.3 1 66
2019-06-21 10:00:00 15.4 6 Este 14 Nordeste 0 895.1 1.3 72
2019-06-21 09:00:00 14.5 8 Nordeste 15 Nordeste 0 894.8 0.9 77
2019-06-21 08:00:00 11.9 5 Este 13 Norte 0 894.3 0.3 88
2019-06-21 07:00:00 11.7 4 Norte 10 Nordeste 0 893.8 -0.2 92
2019-06-21 06:00:00 12.2 3 Nordeste 11 Este 0 893.9 -0.2 92
2019-06-21 05:00:00 12.5 5 Nordeste 13 Este 0 894 -0.3 92
2019-06-21 04:00:00 12.6 5 Nordeste 15 Nordeste 0 894 -0.1 90
2019-06-21 03:00:00 12.8 10 Nordeste 21 Nordeste 0 894.1 0.1 85
2019-06-21 02:00:00 12.9 10 Nordeste 18 Norte 0 894.3 1.1 90
2019-06-21 01:00:00 13.2 7 Este 16 Este 0 894.1 1.2 88
2019-06-21 00:00:00 13.2 7 Nordeste 15 Norte 0 894 1.2 87
2019-06-20 23:00:00 13 11 Nordeste 23 Este 0 893.2 1 86
2019-06-20 22:00:00 13.4 9 Nordeste 19 Nordeste 0.4 892.9 0.8 90
2019-06-20 21:00:00 14.4 14 Oeste 29 Nordeste 5 892.8 0.2 86
2019-06-20 20:00:00 16.4 16 Nordeste 30 Nordeste 0 892.2 0.3 76
2019-06-20 19:00:00 17.3 17 Nordeste 32 Nordeste 0.8 892.1 -0.1 76
2019-06-20 18:00:00 16.6 13 Norte 31 Nordeste 2.6 892.6 0 84
2019-06-20 17:00:00 20.8 15 Nordeste 32 Nordeste 0 891.9 -1 56
2019-06-20 16:00:00 22.8 10 Norte 22 Norte 0 892.2 -1.2 46
2019-06-20 15:00:00 24.2 7 Sur 21 Sur 0 892.6 -1 37
2019-06-20 14:00:00 23.4 7 Sur 23 Este 0 892.9 -0.6 44
2019-06-20 13:00:00 22.1 8 Sudeste 19 Sudeste 0 893.4 -0.3 51
2019-06-20 12:00:00 21.5 6 Este 15 Este 0 893.6 -0.2 52
2019-06-20 11:00:00 20.3 7 Sudeste 18 Sudeste 0 893.5 -0.1 58
2019-06-20 10:00:00 17.8 6 Nordeste 12 Este 0 893.7 0.1 67
2019-06-20 09:00:00 15.6 5 Nordeste 11 Este 0 893.8 0.4 76
2019-06-20 08:00:00 13.5 3 Nordeste 8 Norte 0 893.6 0.3 85
2019-06-20 07:00:00 12.8 2 Norte 8 Este 0 893.6 0.3 82
2019-06-20 06:00:00 13.1 4 Norte 11 Norte 0 893.4 -0.1 78
2019-06-20 05:00:00 13.4 0 Calma 8 Nordeste 0 893.3 -0.5 75
2019-06-20 04:00:00 14 3 Nordeste 5 Este 0 893.3 -0.7 72
2019-06-20 03:00:00 15.5 0 Calma 5 Este 0 893.5 -0.3 67
2019-06-20 02:00:00 16.4 0 Calma 9 Nordeste 0 893.8 0 63
2019-06-20 01:00:00 17.3 4 Norte 10 Noroeste 0 894 0.8 62
2019-06-20 00:00:00 18.6 5 Noroeste 14 Oeste 0 893.8 1.2 52
2019-06-19 23:00:00 19 8 Sur 22 Sur 0 893.8 1.2 55
2019-06-19 22:00:00 21 11 Sur 19 Sur 0 893.2 0.8 47
2019-06-19 21:00:00 23.1 3 Noroeste 10 Norte 0 892.6 0.1 37
2019-06-19 20:00:00 23.3 5 Norte 13 Norte 0 892.6 -0.4 37
2019-06-19 19:00:00 23.6 7 Oeste 18 Oeste 0 892.4 -0.9 37
2019-06-19 18:00:00 23.9 9 Oeste 19 Sudoeste 0 892.5 -1.1 36
2019-06-19 17:00:00 24.4 8 Noroeste 21 Oeste 0 893 -0.9 35
2019-06-19 16:00:00 24.2 9 Oeste 26 Oeste 0 893.3 -0.7 35
2019-06-19 15:00:00 23.8 12 Sudoeste 28 Oeste 0 893.6 -0.5 36
2019-06-19 14:00:00 22.7 13 Oeste 25 Oeste 0 893.9 0 39
2019-06-19 13:00:00 20.8 10 Oeste 28 Noroeste 0 894 0.3 48
2019-06-19 12:00:00 20.2 11 Oeste 25 Oeste 0 894.1 0.3 49
2019-06-19 11:00:00 19.3 5 Noroeste 19 Oeste 0 893.9 0.3 55
2019-06-19 10:00:00 19.4 6 Noroeste 18 Noroeste 0 893.7 0.4 55
2019-06-19 09:00:00 16.6 7 Oeste 17 Oeste 0 893.8 0.7 64
2019-06-19 08:00:00 14.7 7 Oeste 16 Sudoeste 0 893.6 0.6 70
2019-06-19 07:00:00 13.6 7 Sudoeste 13 Sudoeste 0 893.3 0.3 71
2019-06-19 06:00:00 13.9 8 Oeste 13 Oeste 0 893.1 0.1 67
2019-06-19 05:00:00 14.9 6 Oeste 12 Oeste 0 893 -0.1 63
2019-06-19 04:00:00 15.7 7 Oeste 12 Oeste 0 893 -0.1 58
2019-06-19 03:00:00 16.4 6 Oeste 12 Oeste 0 893 -0.1 55
2019-06-19 02:00:00 17.4 9 Oeste 20 Oeste 0 893.1 0.3 51
2019-06-19 01:00:00 18.1 8 Oeste 15 Oeste 0 893.1 1.2 46
2019-06-19 00:00:00 19.2 5 Noroeste 26 Oeste 0 893.1 1.5 44
2019-06-18 23:00:00 20.8 13 Oeste 26 Oeste 0 892.8 1.4 37
2019-06-18 22:00:00 22.8 12 Sudoeste 28 Sudoeste 0 891.9 0.7 13
2019-06-18 21:00:00 24.6 13 Sudoeste 37 Sudoeste 0 891.6 0.2 12
2019-06-18 20:00:00 26 19 Sudoeste 38 Oeste 0 891.4 -0.3 13
2019-06-18 19:00:00 27.3 18 Sudoeste 39 Sur 0 891.2 -0.8 12
2019-06-18 18:00:00 27.8 18 Sudoeste 41 Sur 0 891.4 -0.5 12
2019-06-18 17:00:00 27.8 22 Sudoeste 44 Sudoeste 0 891.7 -0.7 11
2019-06-18 16:00:00 27.9 23 Sudoeste 45 Sur 0 892 -0.9 9
2019-06-18 15:00:00 27.2 22 Sudoeste 51 Oeste 0 891.9 -1.2 14
2019-06-18 14:00:00 26.8 21 Sur 42 Sur 0 892.4 -0.7 17
2019-06-18 13:00:00 25.7 19 Sudoeste 41 Sudoeste 0 892.9 -0.4 22
2019-06-18 12:00:00 24.9 17 Sur 37 Sudoeste 0 893.1 -0.3 26
2019-06-18 11:00:00 23.8 17 Sudoeste 33 Sudoeste 0 893.1 0 25
2019-06-18 10:00:00 22.2 11 Sur 19 Sur 0 893.3 0.9 35
2019-06-18 09:00:00 18.6 4 Sur 9 Sudoeste 0 893.4 0.9 39
2019-06-18 08:00:00 15.4 4 Sur 12 Sudoeste 0 893.1 0.5 44
2019-06-18 07:00:00 14.7 3 Noroeste 6 Sudeste 0 892.4 -0.7 45
2019-06-18 06:00:00 16 3 Sur 10 Sudoeste 0 892.5 -1.2 41
2019-06-18 05:00:00 17.4 3 Nordeste 13 Norte 0 892.6 -1.3 39
2019-06-18 04:00:00 18.5 6 Nordeste 11 Nordeste 0 893.1 -0.8 32
2019-06-18 03:00:00 18.4 4 Oeste 8 Sudoeste 0 893.7 0.2 33
2019-06-18 02:00:00 19.7 4 Norte 8 Norte 0 893.9 0.5 30
2019-06-18 01:00:00 21.6 5 Noroeste 11 Sudoeste 0 893.9 0.7 22
2019-06-18 00:00:00 22.4 9 Oeste 15 Oeste 0 893.5 0.4 20
2019-06-17 23:00:00 23.1 9 Oeste 17 Oeste 0 893.4 0.3 20
2019-06-17 22:00:00 24.6 9 Sudoeste 19 Sudoeste 0 893.2 0.1 18
2019-06-17 21:00:00 25.6 7 Sudoeste 17 Sudoeste 0 893.1 -0.2 18
2019-06-17 20:00:00 26.7 9 Sudoeste 25 Sudoeste 0 893.1 -0.5 17
2019-06-17 19:00:00 27.7 12 Sudoeste 28 Sudoeste 0 893.1 -1.2 16
2019-06-17 18:00:00 28.5 12 Sudoeste 26 Sur 0 893.3 -1.2 16
2019-06-17 17:00:00 29.1 11 Sudoeste 49 Sudoeste 0 893.6 -1.6 15
2019-06-17 16:00:00 28.5 13 Sur 30 Sur 0 894.3 -1.4 16
2019-06-17 15:00:00 28.3 13 Sur 34 Sudoeste 0 894.5 -1.7 17
2019-06-17 14:00:00 27.8 11 Sur 23 Sur 0 895.2 -1.2 19
2019-06-17 13:00:00 26.6 8 Sur 19 Sur 0 895.7 -0.7 20
2019-06-17 12:00:00 25.5 7 Sudoeste 14 Sudeste 0 896.2 -0.2 20
2019-06-17 11:00:00 23 5 Sur 10 Sur 0 896.4 0.2 30
2019-06-17 10:00:00 19.6 3 Sudeste 8 Este 0 896.4 0.4 42
2019-06-17 09:00:00 15.5 4 Este 7 Este 0 896.4 0.6 55
2019-06-17 08:00:00 10.5 2 Norte 6 Nordeste 0 896.2 0.5 74
2019-06-17 07:00:00 9.7 4 Este 6 Nordeste 0 896 0.1 71
2019-06-17 06:00:00 10.8 2 Este 7 Este 0 895.8 -0.3 68
2019-06-17 05:00:00 12.2 3 Noroeste 5 Noroeste 0 895.7 -0.5 62
2019-06-17 04:00:00 13.1 2 Sur 6 Este 0 895.9 -0.4 59
2019-06-17 03:00:00 14.2 3 Sudeste 5 Sudeste 0 896.1 -0.3 55
2019-06-17 02:00:00 15.6 3 Nordeste 8 Nordeste 0 896.2 -0.2 51
2019-06-17 01:00:00 17.5 2 Nordeste 17 Este 0 896.3 0.6 42
2019-06-17 00:00:00 19 5 Este 12 Este 0 896.4 1.2 38
2019-06-16 23:00:00 19.6 5 Este 20 Sudeste 0 896.4 1.2 37
2019-06-16 22:00:00 20.5 9 Este 18 Este 0 895.7 0.5 35
2019-06-16 21:00:00 24 2 Sur 10 Sudoeste 0 895.2 -0.2 21
2019-06-16 20:00:00 25.1 8 Sudoeste 22 Sudoeste 0 895.2 -0.4 19
2019-06-16 19:00:00 26.3 8 Sudoeste 24 Sudoeste 0 895.2 -1 17
2019-06-16 18:00:00 26.2 13 Sudoeste 27 Oeste 0 895.4 -1.3 17
2019-06-16 17:00:00 27.1 6 Oeste 28 Sudoeste 0 895.6 -1.7 17
2019-06-16 16:00:00 26.6 10 Sudoeste 21 Sudoeste 0 896.2 -1.4 17
2019-06-16 15:00:00 25.6 7 Oeste 21 Este 0 896.7 -1.4 20
2019-06-16 14:00:00 24.2 8 Este 25 Sudeste 0 897.3 -1.2 23
2019-06-16 13:00:00 23.1 9 Sur 20 Sudeste 0 897.6 -0.9 26
2019-06-16 12:00:00 21 7 Sur 16 Sur 0 898.1 -0.2 33
2019-06-16 11:00:00 18.9 7 Sur 18 Sur 0 898.5 0.3 40
2019-06-16 10:00:00 16.4 5 Sur 11 Nordeste 0 898.5 0.5 48
2019-06-16 09:00:00 12.5 5 Nordeste 10 Nordeste 0 898.3 0.4 65
2019-06-16 08:00:00 7.4 3 Nordeste 7 Norte 0 898.2 0.3 86
2019-06-16 07:00:00 6.3 0 Calma 10 Norte 0 898 -0.2 85
2019-06-16 06:00:00 6.3 0 Calma 6 Este 0 897.9 -0.8 85
2019-06-16 05:00:00 7.4 5 Este 12 Nordeste 0 897.9 -1.1 82
2019-06-16 04:00:00 8.6 6 Nordeste 10 Nordeste 0 898.2 -0.9 78
2019-06-16 03:00:00 9.2 5 Este 13 Este 0 898.7 0 72
2019-06-16 02:00:00 9.9 7 Este 15 Nordeste 0 899 0.6 68
2019-06-16 01:00:00 10.8 8 Nordeste 21 Este 0 899.1 1.4 65
2019-06-16 00:00:00 11.6 10 Este 21 Nordeste 0 898.7 1.5 64
2019-06-15 23:00:00 12.9 9 Nordeste 26 Este 0 898.4 1.9 61
2019-06-15 22:00:00 14.8 14 Nordeste 28 Este 0 897.7 1.4 55
2019-06-15 21:00:00 17.6 15 Este 26 Este 0 897.2 0.9 45
2019-06-15 20:00:00 21.3 5 Noroeste 18 Oeste 0 896.5 0 25
2019-06-15 19:00:00 22.5 10 Sudoeste 22 Sudoeste 0 896.3 -0.2 22
2019-06-15 18:00:00 22.5 13 Oeste 25 Oeste 0 896.3 -0.3 24
2019-06-15 17:00:00 22.2 10 Oeste 30 Sudoeste 0 896.5 -0.3 25
2019-06-15 16:00:00 22.1 7 Noroeste 18 Oeste 0 896.5 -0.4 27
2019-06-15 15:00:00 21.7 8 Noroeste 24 Noroeste 0 896.6 -0.4 27
2019-06-15 14:00:00 20.4 6 Noroeste 26 Sudoeste 0 896.8 0 31
2019-06-15 13:00:00 19.1 10 Noroeste 28 Sudoeste 0 896.9 0.3 33
2019-06-15 12:00:00 17.3 13 Oeste 28 Oeste 0 897 0.9 38
2019-06-15 11:00:00 15.9 10 Sudoeste 20 Oeste 0 896.8 0.8 45
2019-06-15 10:00:00 14 5 Oeste 20 Noroeste 0 896.6 1.1 56
2019-06-15 09:00:00 11.8 8 Noroeste 20 Noroeste 0 896.1 1.2 63
2019-06-15 08:00:00 9.9 8 Oeste 18 Oeste 0 896 1.3 67
2019-06-15 07:00:00 8.5 6 Oeste 12 Sudoeste 0 895.5 1.2 68
2019-06-15 06:00:00 8.7 5 Sudoeste 13 Oeste 0 894.9 1.1 65
2019-06-15 05:00:00 9.7 8 Oeste 17 Oeste 0 894.7 1.3 59
2019-06-15 04:00:00 11 9 Oeste 17 Oeste 0 894.3 0.9 58
2019-06-15 03:00:00 11.8 9 Sudoeste 15 Oeste 0 893.8 1 52
2019-06-15 02:00:00 13 8 Oeste 17 Sudoeste 0 893.4 1.1 46
2019-06-15 01:00:00 14.3 12 Oeste 30 Oeste 0 893.4 2.3 41
2019-06-15 00:00:00 15.3 13 Oeste 24 Sudoeste 0 892.8 2.5 37
2019-06-14 23:00:00 17.1 10 Sudoeste 18 Sudoeste 0 892.3 2.6 28
2019-06-14 22:00:00 18.9 11 Sudoeste 30 Sudoeste 0 891.1 1.9 25
2019-06-14 21:00:00 20.3 16 Sudoeste 34 Sudoeste 0 890.3 1.2 22
2019-06-14 20:00:00 21.8 15 Sudoeste 35 Oeste 0 889.7 0.6 18
2019-06-14 19:00:00 22.9 16 Sur 36 Oeste 0 889.2 0.1 17
2019-06-14 18:00:00 24.2 17 Sudoeste 39 Sur 0 889.1 -0.1 17
2019-06-14 17:00:00 24.3 17 Sudoeste 40 Sur 0 889.1 -0.2 18
2019-06-14 16:00:00 24.1 21 Sur 40 Sudoeste 0 889.1 -0.3 19
2019-06-14 15:00:00 23.9 18 Sudoeste 38 Sudoeste 0 889.2 -0.5 23
2019-06-14 14:00:00 23.6 19 Sur 37 Sur 0 889.3 -0.7 24
2019-06-14 13:00:00 22.5 7 Sur 23 Sudoeste 0 889.4 -0.5 33
2019-06-14 12:00:00 21.7 8 Sudoeste 19 Sudeste 0 889.7 -0.2 38
2019-06-14 11:00:00 19.3 8 Sur 15 Sur 0 890 0.4 44
2019-06-14 10:00:00 16.6 6 Sur 12 Sur 0 889.9 0.2 56
2019-06-14 09:00:00 12 3 Sudeste 6 Sudeste 0 889.9 0.3 74
2019-06-14 08:00:00 9.9 3 Nordeste 7 Nordeste 0 889.6 0.3 69
2019-06-14 07:00:00 10 2 Norte 16 Nordeste 0 889.7 -0.1 57
2019-06-14 06:00:00 10.8 4 Nordeste 12 Nordeste 0 889.6 -0.2 58
2019-06-14 05:00:00 10.9 6 Nordeste 18 Este 0 889.3 -0.6 56
2019-06-14 04:00:00 12.1 9 Nordeste 22 Nordeste 0 889.8 0 53
2019-06-14 03:00:00 13.5 12 Nordeste 19 Nordeste 0 889.8 0.1 76
2019-06-14 02:00:00 14.6 6 Nordeste 12 Nordeste 0 889.9 0.8 75
2019-06-14 01:00:00 14.9 4 Este 14 Sudeste 0 889.8 1.4 73
2019-06-14 00:00:00 16 9 Sudeste 19 Sudeste 0 889.7 1.6 68
2019-06-13 23:00:00 18.6 3 Noroeste 8 Oeste 0 889.1 1.3 31
2019-06-13 22:00:00 20.4 4 Sudoeste 11 Sur 0 888.4 0.6 32
2019-06-13 21:00:00 21.7 7 Sur 21 Sur 0 888.1 0.3 34
2019-06-13 20:00:00 22.4 15 Sur 30 Sudoeste 0 887.8 -0.3 34
2019-06-13 19:00:00 23.6 17 Sudoeste 35 Sudoeste 0 887.8 -0.6 29
2019-06-13 18:00:00 23.9 17 Sur 36 Sur 0 887.8 -1.1 27
2019-06-13 17:00:00 23.9 17 Sudoeste 38 Sur 0 888.1 -1.3 32
2019-06-13 16:00:00 23.4 15 Sudoeste 35 Sudoeste 0 888.4 -1.1 28
2019-06-13 15:00:00 22.8 17 Sudoeste 35 Sur 0 888.9 -1.1 32
2019-06-13 14:00:00 21.1 19 Sudoeste 42 Sur 0 889.4 -0.7 35
2019-06-13 13:00:00 20.7 18 Sur 31 Sur 0 889.5 -0.6 39
2019-06-13 12:00:00 18.5 17 Sur 30 Sur 0 890 -0.1 48
2019-06-13 11:00:00 16.2 14 Sur 23 Sur 0 890.1 0.2 59
2019-06-13 10:00:00 13.4 8 Sur 15 Sudoeste 0 890.1 0.6 71
2019-06-13 09:00:00 11.3 3 Nordeste 8 Este 0 890.1 0.9 70
2019-06-13 08:00:00 7.6 4 Este 8 Nordeste 0 889.9 0.9 82
2019-06-13 07:00:00 6.9 3 Este 9 Nordeste 0 889.5 0.4 78
2019-06-13 06:00:00 7.6 4 Este 9 Norte 0 889.2 -0.2 77
2019-06-13 05:00:00 7 4 Este 6 Nordeste 0 889 -1 74
2019-06-13 04:00:00 8 2 Sudeste 11 Nordeste 0 889.1 -0.9 69
2019-06-13 03:00:00 9.1 3 Nordeste 11 Nordeste 0 889.4 -0.7 67
2019-06-13 02:00:00 10.1 3 Este 17 Este 0 890 -0.2 58
2019-06-13 01:00:00 11.3 9 Este 18 Este 0 890 0.3 52
2019-06-13 00:00:00 12.5 9 Nordeste 17 Nordeste 0 890.1 0.4 48
2019-06-12 23:00:00 13 6 Este 14 Este 0 890.2 0.4 49
2019-06-12 22:00:00 14.8 6 Nordeste 17 Este 0 889.7 0.1 44
2019-06-12 21:00:00 17.1 4 Nordeste 9 Oeste 0 889.7 -0.5 32
2019-06-12 20:00:00 18.2 6 Oeste 30 Oeste 0 889.8 -0.7 29
2019-06-12 19:00:00 19.5 4 Sudoeste 27 Sudoeste 0 889.6 -1.3 27
2019-06-12 18:00:00 19.4 10 Oeste 21 Oeste 0 890.2 -1.1 28
2019-06-12 17:00:00 18.4 10 Oeste 21 Oeste 0 890.5 -1.2 30
2019-06-12 16:00:00 16.9 10 Sudoeste 26 Sudoeste 0 890.9 -1.1 35
2019-06-12 15:00:00 16.5 13 Sudoeste 28 Oeste 0 891.3 -0.8 32
2019-06-12 14:00:00 15.9 15 Oeste 36 Oeste 0 891.7 -0.5 32
2019-06-12 13:00:00 15.4 15 Oeste 32 Oeste 0 892 -0.3 38
2019-06-12 12:00:00 14 14 Oeste 29 Oeste 0 892.1 -0.2 41
2019-06-12 11:00:00 12.7 11 Sur 18 Sudoeste 0 892.2 0.1 53
2019-06-12 10:00:00 9.9 4 Sur 12 Sudoeste 0 892.3 0.3 65
2019-06-12 09:00:00 7.8 3 Noroeste 6 Noroeste 0 892.3 0.5 74
2019-06-12 08:00:00 3.2 2 Este 6 Sudeste 0 892.1 0.3 90
2019-06-12 07:00:00 3 2 Norte 7 Norte 0 892 0.2 87
2019-06-12 06:00:00 2.7 0 Calma 4 Noroeste 0 891.8 -0.2 88
2019-06-12 05:00:00 3.6 2 Sur 5 Noroeste 0 891.8 -0.6 85
2019-06-12 04:00:00 4.2 3 Oeste 5 Oeste 0 891.8 -1 83
2019-06-12 03:00:00 4.7 3 Nordeste 8 Este 0 892 -0.9 81
2019-06-12 02:00:00 4.8 3 Este 7 Nordeste 0 892.4 -0.9 81
2019-06-12 01:00:00 5.2 3 Nordeste 10 Nordeste 0 892.8 -0.1 80
2019-06-12 00:00:00 6.6 6 Nordeste 12 Nordeste 0 892.9 0.1 74
2019-06-11 23:00:00 7 5 Este 15 Nordeste 0 893.3 0.8 73
2019-06-11 22:00:00 8.3 10 Norte 20 Norte 0 892.9 0.8 69
2019-06-11 21:00:00 10 10 Norte 25 Nordeste 0 892.8 0.8 62
2019-06-11 20:00:00 11.6 10 Norte 32 Nordeste 0 892.5 0.6 50
2019-06-11 19:00:00 13.5 9 Norte 27 Noroeste 0 892.1 0.2 40
2019-06-11 18:00:00 13.7 9 Norte 31 Nordeste 0 892 0.3 41
2019-06-11 17:00:00 15.8 9 Norte 28 Nordeste 0 891.9 0.2 37
2019-06-11 16:00:00 15.1 11 Norte 28 Norte 0 891.9 0 35
2019-06-11 15:00:00 14.9 10 Norte 30 Nordeste 0 891.7 0.2 46
2019-06-11 14:00:00 12.2 8 Nordeste 20 Norte 0.4 891.7 0.5 51
2019-06-11 13:00:00 9.2 12 Norte 25 Nordeste 2 891.9 0.7 71
2019-06-11 12:00:00 10.3 6 Norte 16 Nordeste 0 891.5 0.8 63
2019-06-11 11:00:00 10.2 3 Norte 15 Este 0 891.2 0.3 64
2019-06-11 10:00:00 8 9 Nordeste 22 Nordeste 0 891.2 0.4 77
2019-06-11 09:00:00 6.7 5 Este 13 Este 0.4 890.7 0.1 90
2019-06-11 08:00:00 6 8 Nordeste 15 Nordeste 0.2 890.9 -0.1 89
2019-06-11 07:00:00 6.1 7 Norte 17 Nordeste 0.6 890.8 -0.5 89
2019-06-11 06:00:00 6.1 9 Nordeste 26 Nordeste 0.2 890.6 -1 88
2019-06-11 05:00:00 6.8 18 Nordeste 30 Nordeste 0 891 -0.8 80
2019-06-11 04:00:00 7.2 9 Este 22 Este 0 891.3 -0.8 84
2019-06-11 03:00:00 7.6 12 Este 23 Nordeste 0 891.6 -0.4 79
2019-06-11 02:00:00 8.3 11 Este 24 Este 0 891.8 -0.2 76
2019-06-11 01:00:00 9.3 10 Este 25 Nordeste 0 892.1 -0.1 75
2019-06-11 00:00:00 10.5 11 Este 17 Este 0 892 -0.4 66
2019-06-10 23:00:00 11 10 Nordeste 24 Nordeste 0 892 -0.2 63
2019-06-10 22:00:00 11.7 12 Nordeste 26 Nordeste 0 892.2 0.1 59
2019-06-10 21:00:00 13.1 12 Nordeste 26 Nordeste 0 892.4 0 55
2019-06-10 20:00:00 17.8 6 Norte 22 Noroeste 0 892.2 -0.3 24
2019-06-10 19:00:00 18.9 8 Norte 22 Norte 0 892.1 -0.6 25
2019-06-10 18:00:00 21.2 8 Noroeste 24 Oeste 0 892.4 -0.7 22
2019-06-10 17:00:00 21 9 Noroeste 29 Sudoeste 0 892.5 -0.8 24
2019-06-10 16:00:00 20.2 15 Oeste 32 Sudoeste 0 892.7 -1 27
2019-06-10 15:00:00 20.5 17 Sudoeste 32 Sudoeste 0 893.1 -1 30
2019-06-10 14:00:00 20.6 9 Oeste 21 Noroeste 0 893.3 -1.1 26
2019-06-10 13:00:00 18.9 7 Noroeste 18 Noroeste 0 893.7 -1.1 36
2019-06-10 12:00:00 17 4 Sur 13 Noroeste 0 894.1 -0.6 47
2019-06-10 11:00:00 15.6 3 Sudoeste 11 Noroeste 0 894.4 -0.1 59
2019-06-10 10:00:00 13.4 3 Noroeste 13 Noroeste 0 894.8 0.2 67
2019-06-10 09:00:00 11.5 4 Oeste 9 Norte 0 894.7 0.1 72
2019-06-10 08:00:00 8.2 3 Este 13 Nordeste 0 894.5 0 87
2019-06-10 07:00:00 6.5 5 Nordeste 9 Nordeste 0 894.6 -0.3 90
2019-06-10 06:00:00 6.9 3 Norte 7 Norte 0 894.6 -0.7 89
2019-06-10 05:00:00 7.3 4 Este 13 Nordeste 0 894.5 -1 87
2019-06-10 04:00:00 8.5 7 Nordeste 17 Nordeste 0 894.9 -0.6 84
2019-06-10 03:00:00 8.9 9 Nordeste 16 Norte 0 895.3 0.3 83
2019-06-10 02:00:00 9.2 8 Nordeste 26 Nordeste 0 895.5 0.7 84
2019-06-10 01:00:00 10 12 Nordeste 27 Nordeste 0 895.5 1.6 84
2019-06-10 00:00:00 10.9 10 Nordeste 23 Nordeste 0 895 1.4 82
2019-06-09 23:00:00 11.8 13 Nordeste 30 Nordeste 0 894.8 2.2 77
2019-06-09 22:00:00 13.2 13 Norte 36 Nordeste 0 893.9 1.4 72
2019-06-09 21:00:00 16.3 15 Nordeste 28 Nordeste 0 893.6 0.9 64
2019-06-09 20:00:00 22.2 5 Noroeste 17 Oeste 0 892.6 -0.2 26
2019-06-09 19:00:00 22.8 6 Oeste 19 Noroeste 0 892.5 -0.6 26
2019-06-09 18:00:00 22.8 5 Norte 21 Norte 0 892.7 -0.8 25
2019-06-09 17:00:00 24.3 8 Oeste 25 Oeste 0 892.8 -1.1 22
2019-06-09 16:00:00 24.4 12 Oeste 28 Oeste 0 893.1 -1.2 24
2019-06-09 15:00:00 23.9 11 Oeste 30 Sudoeste 0 893.5 -1.1 24
2019-06-09 14:00:00 22.8 12 Sudoeste 28 Oeste 0 893.9 -0.9 23
2019-06-09 13:00:00 21.7 11 Oeste 27 Oeste 0 894.3 -0.6 26
2019-06-09 12:00:00 20.8 10 Oeste 22 Oeste 0 894.6 -0.3 38
2019-06-09 11:00:00 18.9 5 Sur 13 Oeste 0 894.8 0 52
2019-06-09 10:00:00 17 4 Oeste 11 Noroeste 0 894.9 0.3 59
2019-06-09 09:00:00 13.9 2 Nordeste 9 Este 0 894.9 0.1 67
2019-06-09 08:00:00 9.5 3 Sudeste 6 Este 0 894.8 -0.4 88
2019-06-09 07:00:00 8.9 3 Este 5 Este 0 894.6 -0.7 86
2019-06-09 06:00:00 10.1 0 Calma 5 Este 0 894.8 -0.8 81
2019-06-09 05:00:00 10.8 0 Calma 9 Este 0 895.2 -0.9 76
2019-06-09 04:00:00 11 3 Norte 9 Este 0 895.3 -0.9 74
2019-06-09 03:00:00 11.7 5 Este 8 Este 0 895.6 -0.7 69
2019-06-09 02:00:00 12.8 4 Nordeste 11 Nordeste 0 896.1 -0.3 65
2019-06-09 01:00:00 14.1 4 Este 17 Este 0 896.2 0.8 59
2019-06-09 00:00:00 14.3 5 Sudeste 15 Este 0 896.3 0.9 62
2019-06-08 23:00:00 16.2 8 Nordeste 20 Este 0.2 896.4 0.8 58
2019-06-08 22:00:00 17.7 13 Este 23 Este 0 895.4 -0.2 50
2019-06-08 21:00:00 19 10 Este 27 Sudeste 0 895.4 -0.5 47
2019-06-08 20:00:00 19.9 13 Sudeste 28 Este 0 895.6 -0.5 46
2019-06-08 19:00:00 20.8 12 Sudeste 31 Sudeste 0 895.6 -1.2 41
2019-06-08 18:00:00 21.5 9 Sudeste 43 Este 0 895.9 -1.7 39
2019-06-08 17:00:00 23.1 12 Sur 28 Sur 0 896.1 -2.1 33
2019-06-08 16:00:00 21.6 10 Sur 19 Sudeste 0 896.8 -1.8 34
2019-06-08 15:00:00 21.6 9 Sur 24 Sudeste 0 897.6 -1.3 32
2019-06-08 14:00:00 20.3 13 Sur 24 Sur 0 898.2 -1.3 33
2019-06-08 13:00:00 19.5 10 Sudeste 26 Este 0 898.6 -1.1 31
2019-06-08 12:00:00 18.1 10 Sudeste 27 Este 0 898.9 -0.6 39
2019-06-08 11:00:00 15.9 11 Sudeste 25 Este 0 899.5 -0.1 46
2019-06-08 10:00:00 12.7 6 Nordeste 12 Este 0 899.7 0.3 53
2019-06-08 09:00:00 8.9 6 Nordeste 9 Nordeste 0 899.5 0.1 63
2019-06-08 08:00:00 3.2 4 Sudeste 6 Sudeste 0 899.6 0.3 92
2019-06-08 07:00:00 2.1 3 Este 5 Este 0 899.4 0.2 87
2019-06-08 06:00:00 2.8 3 Nordeste 5 Nordeste 0 899.4 0.4 83
2019-06-08 05:00:00 3.7 3 Norte 9 Noroeste 0 899.3 0.1 81
2019-06-08 04:00:00 4.3 3 Nordeste 11 Este 0 899.2 0.3 79
2019-06-08 03:00:00 5.5 3 Norte 6 Norte 0 899 0.3 74
2019-06-08 02:00:00 6.2 2 Sudeste 8 Nordeste 0 899.2 0.9 71
2019-06-08 01:00:00 7.3 4 Norte 8 Nordeste 0 898.9 1.3 62
2019-06-08 00:00:00 8.5 6 Este 9 Este 0 898.7 1.5 55
2019-06-07 23:00:00 10.4 3 Norte 8 Noroeste 0 898.3 1.6 45
2019-06-07 22:00:00 12.1 3 Norte 13 Oeste 0 897.6 1.4 41
2019-06-07 21:00:00 14.2 9 Oeste 20 Oeste 0 897.2 1.3 32
2019-06-07 20:00:00 15.5 12 Oeste 23 Oeste 0 896.7 1.2 29
2019-06-07 19:00:00 16.1 10 Oeste 27 Oeste 0 896.2 0.9 29
2019-06-07 18:00:00 15.8 6 Noroeste 29 Oeste 0 895.9 0.9 31
2019-06-07 17:00:00 15.8 6 Noroeste 22 Oeste 0 895.5 1.1 33
2019-06-07 16:00:00 15.2 8 Norte 24 Oeste 0 895.3 1.5 39
2019-06-07 15:00:00 15.3 12 Noroeste 29 Oeste 0 895 1.8 37
2019-06-07 14:00:00 13.7 14 Oeste 34 Oeste 0 894.4 2.1 41
2019-06-07 13:00:00 13.4 16 Oeste 32 Oeste 0 893.8 2.2 45
2019-06-07 12:00:00 11 12 Oeste 36 Oeste 0 893.2 2.5 54
2019-06-07 11:00:00 9 16 Oeste 38 Oeste 0 892.3 2.8 63
2019-06-07 10:00:00 7.8 17 Oeste 39 Oeste 0 891.6 3.1 71
2019-06-07 09:00:00 6.8 17 Oeste 47 Oeste 0 890.7 2.8 79
2019-06-07 08:00:00 6.6 21 Oeste 41 Oeste 0 889.5 1.7 80
2019-06-07 07:00:00 6 17 Oeste 38 Oeste 0 888.5 1.1 85
2019-06-07 06:00:00 6.3 18 Oeste 40 Oeste 0.2 887.9 1.5 85
2019-06-07 05:00:00 6.8 20 Oeste 40 Oeste 0.2 887.8 2.6 84
2019-06-07 04:00:00 7.3 20 Oeste 41 Oeste 0.2 887.4 2 84
2019-06-07 03:00:00 10.8 14 Oeste 35 Oeste 0 886.4 0.8 80
2019-06-07 02:00:00 14.1 11 Sudoeste 39 Sur 0 885.2 -0.5 51
2019-06-07 01:00:00 15.5 18 Sudoeste 42 Sudoeste 0 885.4 0 34
2019-06-07 00:00:00 15.3 16 Sudoeste 41 Sudoeste 0 885.6 0.2 33
2019-06-06 23:00:00 15.9 14 Sudoeste 33 Sudoeste 0 885.7 0.2 31
2019-06-06 22:00:00 17.2 17 Sudoeste 37 Sudoeste 0 885.4 -0.5 28
2019-06-06 21:00:00 18.3 22 Sudoeste 52 Sudoeste 0 885.4 -1.2 27
2019-06-06 20:00:00 19.2 26 Sudoeste 49 Sudoeste 0 885.5 -1.9 25
2019-06-06 19:00:00 19.7 27 Sudoeste 51 Sudoeste 0 885.9 -2.1 22
2019-06-06 18:00:00 19.7 23 Sudoeste 46 Sur 0 886.6 -1.8 29
2019-06-06 17:00:00 19.2 23 Sur 49 Sur 0 887.4 -1.6 29
2019-06-06 16:00:00 20 25 Sur 52 Sudoeste 0 888 -1.6 26
2019-06-06 15:00:00 19.1 22 Sudoeste 44 Sur 0 888.4 -2 28
2019-06-06 14:00:00 18.2 19 Sudoeste 39 Sur 0 889 -1.7 29
2019-06-06 13:00:00 16.4 19 Sur 32 Sudoeste 0 889.6 -1.5 40
2019-06-06 12:00:00 15.1 14 Sur 28 Sudeste 0 890.4 -0.9 48
2019-06-06 11:00:00 13.9 12 Sur 19 Sudoeste 0 890.7 -0.8 50
2019-06-06 10:00:00 11.6 3 Este 8 Este 0 891.1 -0.5 70
2019-06-06 09:00:00 8.8 4 Sudeste 7 Sudeste 0 891.3 -0.3 87
2019-06-06 08:00:00 6.6 4 Este 6 Este 0 891.5 0 94
2019-06-06 07:00:00 6.4 2 Nordeste 4 Norte 0 891.6 0 92
2019-06-06 06:00:00 6.6 0 Calma 6 Este 0 891.6 -0.2 91
2019-06-06 05:00:00 6.7 3 Este 7 Este 0 891.5 -0.3 91
2019-06-06 04:00:00 6.8 3 Este 8 Este 0 891.6 -0.2 90
2019-06-06 03:00:00 7 4 Este 6 Nordeste 0 891.8 -0.2 90
2019-06-06 02:00:00 6.9 4 Este 10 Este 0 891.8 0.1 89
2019-06-06 01:00:00 7.2 5 Este 13 Este 0 891.8 0.8 87
2019-06-06 00:00:00 8.1 8 Este 17 Nordeste 0 892 1.2 85
2019-06-05 23:00:00 8.9 10 Nordeste 18 Nordeste 0 891.7 1.4 79
2019-06-05 22:00:00 10 6 Nordeste 14 Nordeste 0 891 0.9 76
2019-06-05 21:00:00 11.1 8 Nordeste 17 Nordeste 0 890.8 0.6 68
2019-06-05 20:00:00 13.6 8 Este 14 Este 0 890.3 0.2 54
2019-06-05 19:00:00 14 8 Este 23 Nordeste 0 890.1 0.2 55
2019-06-05 18:00:00 14.7 9 Norte 19 Oeste 0 890.2 0 51
2019-06-05 17:00:00 13.9 8 Noroeste 33 Oeste 0 890.1 0 49
2019-06-05 16:00:00 15.6 7 Noroeste 27 Oeste 0 889.9 0.3 49
2019-06-05 15:00:00 13.7 12 Noroeste 28 Oeste 0.4 890.2 1.2 67
2019-06-05 14:00:00 11.3 8 Sudoeste 19 Oeste 0.2 890.1 2.4 75
2019-06-05 13:00:00 10.5 5 Norte 17 Nordeste 0.2 889.6 2.7 71
2019-06-05 12:00:00 8.1 8 Norte 18 Norte 1.6 889 2.7 86
2019-06-05 11:00:00 8.9 6 Norte 21 Noroeste 2.2 887.7 1.9 86
2019-06-05 10:00:00 10.2 8 Nordeste 13 Nordeste 0 886.9 1.1 80
2019-06-05 09:00:00 10.3 9 Oeste 20 Oeste 0 886.3 0.8 91
2019-06-05 08:00:00 10.3 9 Oeste 19 Oeste 0.4 885.8 0.1 92
2019-06-05 07:00:00 10.9 9 Oeste 25 Oeste 1.2 885.8 -0.3 88
2019-06-05 06:00:00 11.3 2 Norte 11 Nordeste 0 885.5 -1.5 93
2019-06-05 05:00:00 11 6 Nordeste 12 Nordeste 1.2 885.7 -1.3 95
2019-06-05 04:00:00 11.3 8 Este 16 Nordeste 1.8 886.1 -1.5 94
2019-06-05 03:00:00 12.1 3 Este 19 Nordeste 0.2 887 -1.1 91
2019-06-05 02:00:00 12 8 Este 19 Nordeste 0 887 -0.7 88
2019-06-05 01:00:00 12.7 7 Nordeste 15 Nordeste 0 887.6 0.6 85
2019-06-05 00:00:00 13.8 6 Este 19 Este 0 888.1 1.2 80
2019-06-04 23:00:00 16.5 11 Nordeste 20 Nordeste 0 887.7 0.9 70
2019-06-04 22:00:00 19.5 5 Noroeste 16 Oeste 0 887 0.2 42
2019-06-04 21:00:00 20.8 10 Oeste 25 Noroeste 0 886.9 -0.3 38
2019-06-04 20:00:00 23.9 13 Noroeste 32 Sur 0 886.8 -0.9 33
2019-06-04 19:00:00 24.8 18 Sudoeste 39 Sur 0 886.8 -1.6 24
2019-06-04 18:00:00 26.2 17 Sudoeste 37 Sudoeste 0 887.2 -1.4 25
2019-06-04 17:00:00 26.3 15 Sudoeste 39 Sudoeste 0 887.7 -1.4 25
2019-06-04 16:00:00 26.3 22 Sudoeste 42 Sur 0 888.4 -1.1 26
2019-06-04 15:00:00 26 18 Sudoeste 39 Sudoeste 0 888.6 -1.1 31
2019-06-04 14:00:00 25.1 15 Sudoeste 32 Oeste 0 889.1 -1.1 32
2019-06-04 13:00:00 25.4 15 Sudoeste 28 Sudoeste 0 889.5 -1 34
2019-06-04 12:00:00 24 14 Oeste 31 Oeste 0 889.7 -0.9 35
2019-06-04 11:00:00 22.1 12 Sudoeste 24 Oeste 0 890.2 -0.5 34
2019-06-04 10:00:00 19.7 12 Sudoeste 22 Sur 0 890.5 0.2 37
2019-06-04 09:00:00 16.2 3 Sudeste 4 Sudeste 0 890.6 0.1 50
2019-06-04 08:00:00 11.5 0 Calma 5 Nordeste 0 890.7 -0.2 53
2019-06-04 07:00:00 12.7 2 Sudoeste 8 Oeste 0 890.3 -0.7 47
2019-06-04 06:00:00 14.2 4 Noroeste 11 Oeste 0 890.5 -0.8 40
2019-06-04 05:00:00 13.2 4 Sur 9 Este 0 890.9 -1 44
2019-06-04 04:00:00 16.1 2 Noroeste 11 Oeste 0 891 -1.5 34
2019-06-04 03:00:00 17.3 4 Oeste 13 Sudoeste 0 891.3 -1.6 25
2019-06-04 02:00:00 18.2 7 Sudoeste 12 Oeste 0 891.9 -1.1 23
2019-06-04 01:00:00 19.3 8 Oeste 14 Oeste 0 892.5 0.1 22
2019-06-04 00:00:00 20.6 7 Sudoeste 12 Sudoeste 0 892.9 0.6 22
2019-06-03 23:00:00 21.6 6 Oeste 9 Oeste 0 893 0.8 20
2019-06-03 22:00:00 23.8 5 Oeste 14 Noroeste 0 892.4 -0.2 18
2019-06-03 21:00:00 26.5 6 Noroeste 15 Oeste 0 892.3 -0.6 16
2019-06-03 20:00:00 27.4 8 Oeste 19 Oeste 0 892.2 -1.1 23
2019-06-03 19:00:00 27.6 9 Sur 25 Sur 0 892.6 -1.3 22
2019-06-03 18:00:00 29.8 8 Oeste 33 Oeste 0 892.9 -1.6 16
2019-06-03 17:00:00 30.4 12 Oeste 33 Oeste 0 893.3 -1.8 15
2019-06-03 16:00:00 28.8 14 Sudoeste 33 Sudoeste 0 893.9 -1.8 17
2019-06-03 15:00:00 28.3 15 Sudoeste 32 Sudoeste 0 894.5 -1.3 23
2019-06-03 14:00:00 27.6 13 Sudoeste 24 Sur 0 895.1 -0.7 25
2019-06-03 13:00:00 25.8 9 Oeste 21 Sudoeste 0 895.7 -0.2 26
2019-06-03 12:00:00 23.2 9 Sudoeste 14 Sudoeste 0 895.8 0.1 34
2019-06-03 11:00:00 22.3 4 Sur 8 Sur 0 895.8 0 41
2019-06-03 10:00:00 18.4 3 Oeste 6 Este 0 895.9 0.1 57
2019-06-03 09:00:00 16 5 Este 8 Este 0 895.7 0.2 72
2019-06-03 08:00:00 14.7 2 Oeste 6 Sudoeste 0 895.8 0.1 71
2019-06-03 07:00:00 14 0 Calma 5 Sudeste 0 895.8 -0.2 71
2019-06-03 06:00:00 14.3 3 Norte 9 Norte 0 895.5 -0.2 70
2019-06-03 05:00:00 15 2 Sudeste 12 Este 0 895.7 -0.4 69
2019-06-03 04:00:00 16.5 2 Sudoeste 5 Sur 0 896 0 63
2019-06-03 03:00:00 16.8 0 Calma 6 Norte 0 895.7 -0.7 62
2019-06-03 02:00:00 17.4 0 Calma 10 Nordeste 0 896.1 -0.5 61
2019-06-03 01:00:00 19.6 6 Nordeste 11 Nordeste 0 896 0.4 51
2019-06-03 00:00:00 21.2 4 Oeste 19 Sur 0 896.4 1 40
2019-06-02 23:00:00 21.9 3 Sudeste 13 Nordeste 0 896.6 1.5 42
2019-06-02 22:00:00 22.9 9 Nordeste 17 Nordeste 0 895.6 0.6 42
2019-06-02 21:00:00 25.1 4 Norte 19 Nordeste 0 895.4 0.1 38
2019-06-02 20:00:00 27.9 8 Nordeste 14 Oeste 0 895.1 -0.4 28
2019-06-02 19:00:00 29.7 7 Noroeste 16 Norte 0 895 -0.9 19
2019-06-02 18:00:00 29.3 9 Oeste 22 Sur 0 895.3 -1 20
2019-06-02 17:00:00 30.8 11 Oeste 25 Sudoeste 0 895.5 -1.5 17
2019-06-02 16:00:00 30.1 12 Oeste 25 Oeste 0 895.9 -1.6 19
2019-06-02 15:00:00 30.3 12 Sudoeste 25 Sudoeste 0 896.3 -1.5 18
2019-06-02 14:00:00 29.2 6 Noroeste 18 Sudoeste 0 897 -0.9 23
2019-06-02 13:00:00 27.3 9 Sudoeste 18 Sudoeste 0 897.5 -0.6 29
2019-06-02 12:00:00 25.5 9 Sur 16 Sur 0 897.8 -0.2 32
2019-06-02 11:00:00 23.1 5 Sur 9 Sur 0 897.9 0 37
2019-06-02 10:00:00 20.3 3 Sur 10 Sur 0 898.1 0.4 42
2019-06-02 09:00:00 17.2 3 Nordeste 7 Norte 0 898 0.3 54
2019-06-02 08:00:00 12.1 2 Este 5 Este 0 897.9 0.2 72
2019-06-02 07:00:00 11.1 2 Noroeste 5 Este 0 897.7 -0.2 71
2019-06-02 06:00:00 11.1 0 Calma 7 Este 0 897.7 -0.5 73
2019-06-02 05:00:00 12.1 0 Calma 6 Noroeste 0 897.7 -0.7 70
2019-06-02 04:00:00 12.8 3 Sudeste 6 Sudeste 0 897.9 -0.6 70
2019-06-02 03:00:00 14.1 3 Nordeste 7 Norte 0 898.2 -0.5 65
2019-06-02 02:00:00 15.4 2 Norte 8 Nordeste 0 898.4 -0.1 60
2019-06-02 01:00:00 16.7 0 Calma 5 Nordeste 0 898.5 0.6 51
2019-06-02 00:00:00 18.3 5 Nordeste 8 Este 0 898.7 1.2 46
2019-06-01 23:00:00 19.5 5 Este 11 Este 0 898.5 1.4 42
2019-06-01 22:00:00 21.6 8 Este 15 Nordeste 0 897.9 0.9 41
2019-06-01 21:00:00 24.2 10 Nordeste 26 Nordeste 0 897.5 0.3 36
2019-06-01 20:00:00 26.2 14 Nordeste 28 Nordeste 0 897.1 -0.4 32
2019-06-01 19:00:00 28.4 10 Este 34 Este 0 897 -1.1 25
2019-06-01 18:00:00 29.5 6 Nordeste 15 Nordeste 0 897.2 -1.4 20
2019-06-01 17:00:00 29.7 8 Este 21 Este 0 897.5 -1.7 20
2019-06-01 16:00:00 29.1 6 Este 23 Este 0 898.1 -1.6 20
2019-06-01 15:00:00 29.2 5 Sudoeste 15 Sudeste 0 898.6 -1.4 19
2019-06-01 14:00:00 28 6 Este 20 Sudeste 0 899.2 -0.8 20
2019-06-01 13:00:00 26.2 6 Sur 15 Sudeste 0 899.7 -0.4 31
2019-06-01 12:00:00 24 8 Sur 14 Sudeste 0 900 0 34
2019-06-01 11:00:00 22.1 7 Sur 12 Sudeste 0 900 -0.1 40
2019-06-01 10:00:00 19.1 4 Sudeste 9 Este 0 900.1 0.2 46
2019-06-01 09:00:00 15 4 Este 8 Este 0 900 0.2 56
2019-06-01 08:00:00 10.1 4 Nordeste 7 Nordeste 0 900.1 0.1 73
2019-06-01 07:00:00 10 3 Norte 8 Nordeste 0 899.9 -0.1 69
2019-06-01 06:00:00 10.3 4 Norte 12 Norte 0 899.8 -0.4 68
2019-06-01 05:00:00 9.6 2 Este 5 Nordeste 0 900 -0.5 73
2019-06-01 04:00:00 11.5 0 Calma 7 Norte 0 900 -0.6 65
2019-06-01 03:00:00 13.1 3 Norte 8 Norte 0 900.2 -0.6 59
2019-06-01 02:00:00 14.6 2 Este 5 Nordeste 0 900.5 -0.1 48
2019-06-01 01:00:00 16 4 Nordeste 6 Este 0 900.6 0.5 41
2019-06-01 00:00:00 16.8 5 Nordeste 10 Nordeste 0 900.8 1 42
2019-05-31 23:00:00 18.6 8 Nordeste 13 Nordeste 0 900.6 1.1 38
2019-05-31 22:00:00 20 6 Este 12 Nordeste 0 900.1 0.6 34
2019-05-31 21:00:00 22.8 8 Este 22 Nordeste 0 899.8 0.1 28
2019-05-31 20:00:00 24.6 13 Nordeste 23 Nordeste 0 899.5 -0.3 28
2019-05-31 19:00:00 27.2 9 Este 24 Este 0 899.5 -0.8 26
2019-05-31 18:00:00 28.3 13 Este 26 Este 0 899.7 -1 24
2019-05-31 17:00:00 28.4 4 Norte 17 Nordeste 0 899.8 -1.3 16
2019-05-31 16:00:00 27.8 5 Este 15 Norte 0 900.3 -1.1 15
2019-05-31 15:00:00 27.7 7 Sudeste 17 Este 0 900.7 -0.9 15
2019-05-31 14:00:00 26.4 6 Norte 16 Nordeste 0 901.1 -0.7 18
2019-05-31 13:00:00 25.7 4 Este 13 Nordeste 0 901.4 -0.6 21
2019-05-31 12:00:00 23.8 6 Nordeste 17 Nordeste 0 901.6 -- 27
2019-05-31 11:00:00 21.7 8 Nordeste 16 Nordeste 0 901.8 0 34
2019-05-31 10:00:00 19.2 6 Norte 10 Nordeste 0 902 0.4 44
2019-05-31 09:00:00 15.9 3 Noroeste 8 Oeste 0 -- -- 58
2019-05-31 08:00:00 10.4 3 Sudoeste 9 Oeste 0 901.8 0.2 76
2019-05-31 07:00:00 9.8 3 Sudoeste 6 Noroeste 0 901.6 -0.2 74
2019-05-31 06:00:00 10.1 2 Nordeste 5 Oeste 0 901.6 -0.4 72
2019-05-31 05:00:00 11.3 3 Nordeste 8 Norte 0 901.6 -0.7 68
2019-05-31 04:00:00 12.5 3 Norte 5 Sudeste 0 901.8 -0.9 64
2019-05-31 03:00:00 12.8 2 Sur 12 Nordeste 0 902 -1 65
2019-05-31 02:00:00 14.8 5 Norte 15 Norte 0 902.3 -0.5 59
2019-05-31 01:00:00 15.3 9 Norte 14 Norte 0 902.7 0.5 57
2019-05-31 00:00:00 15.8 3 Norte 16 Norte 0 903 1 53
2019-05-30 23:00:00 17.7 11 Norte 23 Norte 0 902.8 1.1 44
2019-05-30 22:00:00 19 13 Norte 23 Norte 0 902.2 0.6 38
2019-05-30 21:00:00 20.9 14 Nordeste 27 Nordeste 0 902 0.2 33
2019-05-30 20:00:00 22.6 15 Nordeste 30 Nordeste 0 901.7 -0.5 24
2019-05-30 19:00:00 24.2 14 Nordeste 26 Nordeste 0 901.6 -0.6 19
2019-05-30 18:00:00 24.6 13 Nordeste 31 Nordeste 0 901.8 -0.5 16
2019-05-30 17:00:00 24.7 15 Nordeste 30 Nordeste 0 902.2 -0.3 15
2019-05-30 16:00:00 24.8 17 Nordeste 33 Nordeste 0 902.2 -0.5 16
2019-05-30 15:00:00 23.9 15 Nordeste 32 Nordeste 0 902.3 -0.6 19
2019-05-30 14:00:00 22.5 18 Nordeste 31 Nordeste 0 902.5 -0.4 22
2019-05-30 13:00:00 22.3 13 Nordeste 29 Nordeste 0 902.7 -0.2 28
2019-05-30 12:00:00 21.1 11 Nordeste 26 Nordeste 0 902.9 0.3 31
2019-05-30 11:00:00 19.4 7 Nordeste 17 Nordeste 0 902.9 0.5 41
2019-05-30 10:00:00 17.8 5 Norte 13 Norte 0 902.9 0.9 42
2019-05-30 09:00:00 13.4 6 Sudoeste 10 Sudoeste 0 902.6 0.8 60
2019-05-30 08:00:00 9.1 3 Sudoeste 9 Noroeste 0 902.4 0.5 72
2019-05-30 07:00:00 9.2 3 Norte 8 Norte 0 902 -0.1 70
2019-05-30 06:00:00 11.2 6 Norte 21 Nordeste 0 901.8 -0.4 62
2019-05-30 05:00:00 11.2 10 Nordeste 15 Nordeste 0 901.9 -0.9 60
2019-05-30 04:00:00 11 6 Norte 17 Norte 0 902.1 -0.6 61
2019-05-30 03:00:00 11.2 8 Norte 18 Norte 0 902.2 -0.5 61
2019-05-30 02:00:00 10.4 7 Norte 15 Nordeste 0 902.8 0.4 63
2019-05-30 01:00:00 11.2 6 Nordeste 19 Nordeste 0 902.7 0.9 61
2019-05-30 00:00:00 11.1 10 Este 27 Nordeste 0 902.7 0.8 65
2019-05-29 23:00:00 11.8 14 Norte 25 Nordeste 0 902.4 0.9 63
2019-05-29 22:00:00 12.2 6 Nordeste 22 Norte 0 901.8 0.5 63
2019-05-29 21:00:00 13.6 6 Norte 24 Nordeste 0 901.9 0.7 57
2019-05-29 20:00:00 14.6 16 Nordeste 31 Nordeste 0 901.5 0.3 53
2019-05-29 19:00:00 16.2 13 Norte 34 Nordeste 0 901.3 0.2 48
2019-05-29 18:00:00 16 17 Nordeste 37 Nordeste 0 901.2 0.5 48
2019-05-29 17:00:00 16.1 16 Nordeste 36 Nordeste 0 901.2 0.4 49
2019-05-29 16:00:00 17.2 11 Norte 42 Nordeste 0 901.1 0.4 45
2019-05-29 15:00:00 16.6 19 Norte 39 Nordeste 0 900.7 0 47
2019-05-29 14:00:00 14.5 22 Nordeste 36 Nordeste 0 900.8 0 53
2019-05-29 13:00:00 14.6 13 Nordeste 35 Nordeste 0 900.7 0.3 53
2019-05-29 12:00:00 13.8 18 Nordeste 35 Nordeste 0 900.7 0.6 55
2019-05-29 11:00:00 13 15 Norte 38 Norte 0 900.8 1.1 55
2019-05-29 10:00:00 12.5 10 Norte 31 Nordeste 0 900.4 1 57
2019-05-29 09:00:00 9.7 14 Norte 31 Nordeste 0 900.1 0.7 70
2019-05-29 08:00:00 8.3 9 Norte 22 Norte 0 899.7 0.5 75
2019-05-29 07:00:00 7.4 8 Norte 20 Norte 0 899.4 0 73
2019-05-29 06:00:00 7.6 5 Nordeste 17 Norte 0 899.4 0.2 72
2019-05-29 05:00:00 7.7 7 Norte 21 Nordeste 0 899.2 -0.1 69
2019-05-29 04:00:00 7 7 Norte 27 Nordeste 0 899.4 0.2 71
2019-05-29 03:00:00 6.6 9 Norte 21 Norte 0 899.2 0.2 71
2019-05-29 02:00:00 6.6 3 Oeste 21 Nordeste 0 899.3 0.5 70
2019-05-29 01:00:00 7.2 9 Norte 19 Norte 0 899.2 0.9 67
2019-05-29 00:00:00 7.7 7 Norte 27 Norte 0 899 1 69
2019-05-28 23:00:00 8.6 7 Nordeste 24 Nordeste 0 898.8 1.4 63
2019-05-28 22:00:00 9.4 9 Norte 25 Nordeste 0 898.3 1.5 60
2019-05-28 21:00:00 11 14 Nordeste 29 Nordeste 0 898 1.7 56
2019-05-28 20:00:00 12.8 10 Norte 30 Norte 0 897.4 1.4 48
2019-05-28 19:00:00 15 9 Norte 41 Nordeste 0 896.8 1 46
2019-05-28 18:00:00 14.6 19 Norte 44 Nordeste 0 896.3 0.5 46
2019-05-28 17:00:00 15.4 20 Norte 46 Nordeste 0 896 0.4 43
2019-05-28 16:00:00 15.5 21 Norte 39 Nordeste 0 895.8 0.2 42
2019-05-28 15:00:00 14.9 23 Norte 40 Norte 0 895.8 0.1 45
2019-05-28 14:00:00 15.3 15 Nordeste 32 Nordeste 0 895.6 -0.3 43
2019-05-28 13:00:00 14.8 16 Norte 33 Norte 0 895.6 0.1 45
2019-05-28 12:00:00 14 11 Norte 31 Nordeste 0 895.7 0.9 43
2019-05-28 11:00:00 11.8 19 Norte 35 Nordeste 0 895.9 1.4 49
2019-05-28 10:00:00 10.9 18 Norte 31 Nordeste 0 895.5 1.6 52
2019-05-28 09:00:00 9.4 10 Nordeste 17 Nordeste 0 894.8 1.4 58
2019-05-28 08:00:00 6.7 6 Nordeste 18 Nordeste 0 894.5 1.1 71
2019-05-28 07:00:00 5.8 8 Nordeste 16 Nordeste 0 893.9 0.2 73
2019-05-28 06:00:00 6.3 8 Nordeste 19 Norte 0 893.4 -0.3 73
2019-05-28 05:00:00 6.4 7 Nordeste 13 Nordeste 0 893.4 -0.6 72
2019-05-28 04:00:00 6.7 5 Nordeste 17 Nordeste 0 893.7 -0.7 72
2019-05-28 03:00:00 7.5 9 Nordeste 22 Norte 0 893.7 -0.7 69
2019-05-28 02:00:00 7.9 10 Nordeste 21 Nordeste 0 894 -0.5 70
2019-05-28 01:00:00 9.2 12 Nordeste 31 Nordeste 0 894.4 0.5 69
2019-05-28 00:00:00 10.3 13 Nordeste 25 Nordeste 0 894.4 0.8 69